Time;durP1;ratioP1;P1;durP2;ratioP2;P2;SDS_P1;SDS_P2;PMS_P1;PMS_P2;Temp;Humidity;BMP_temperature;BMP_pressure;BME280_temperature;BME280_humidity;BME280_pressure;Samples;Min_cycle;Max_cycle;Signal;HPM_P1;HPM_P2
2022/05/29 00:00:51;;;;;;;5.05;0.95;;;;;;;11.02;57.75;98574.38;4485461;31;20119;-72
2022/05/29 00:03:19;;;;;;;2.35;0.60;;;;;;;11.03;57.61;98573.41;4485267;31;20441;-72
2022/05/29 00:05:47;;;;;;;1.98;0.60;;;;;;;11.01;57.55;98570.13;4485222;31;20076;-72
2022/05/29 00:08:22;;;;;;;1.75;0.80;;;;;;;11.00;57.70;98565.84;4484147;32;20127;-72
2022/05/29 00:10:50;;;;;;;0.88;0.50;;;;;;;11.02;57.80;98563.88;4485662;31;20473;-72
2022/05/29 00:13:17;;;;;;;2.37;0.68;;;;;;;11.05;57.40;98563.59;4485861;31;20084;-72
2022/05/29 00:15:44;;;;;;;2.58;0.73;;;;;;;11.06;57.35;98562.63;4485438;31;20119;-72
2022/05/29 00:18:13;;;;;;;3.05;0.80;;;;;;;11.03;57.34;98556.88;4485429;31;20119;-72
2022/05/29 00:20:40;;;;;;;1.33;0.77;;;;;;;11.04;57.31;98556.72;4485629;31;20100;-72
2022/05/29 00:23:08;;;;;;;0.80;0.50;;;;;;;11.01;57.50;98557.03;4485280;31;20092;-72
2022/05/29 00:25:35;;;;;;;1.60;0.70;;;;;;;11.02;57.12;98556.03;4484000;32;20107;-72
2022/05/29 00:28:02;;;;;;;2.33;0.60;;;;;;;10.99;56.85;98558.94;4485355;31;20088;-72
2022/05/29 00:30:29;;;;;;;1.30;0.60;;;;;;;11.03;56.48;98555.06;4485213;31;20108;-72
2022/05/29 00:32:57;;;;;;;0.50;0.50;;;;;;;11.01;56.54;98551.78;4484863;32;20134;-72
2022/05/29 00:35:24;;;;;;;0.98;0.70;;;;;;;11.01;56.27;98549.16;4484948;31;20138;-72
2022/05/29 00:37:51;;;;;;;1.65;0.80;;;;;;;11.06;56.21;98541.66;4485226;31;20088;-72
2022/05/29 00:40:38;;;;;;;0.55;0.47;;;;;;;11.01;56.03;98544.72;4485218;31;20100;-72
2022/05/29 00:43:05;;;;;;;1.52;0.73;;;;;;;10.93;56.07;98541.19;4483811;32;20100;-72
2022/05/29 00:45:38;;;;;;;1.40;0.73;;;;;;;10.86;56.35;98534.88;4485187;31;20115;-72
2022/05/29 00:48:06;;;;;;;4.30;1.02;;;;;;;10.85;56.28;98531.41;4483967;32;20479;-72
2022/05/29 00:50:33;;;;;;;1.90;0.70;;;;;;;10.75;56.51;98526.22;4485169;31;20122;-72
2022/05/29 00:53:00;;;;;;;2.00;0.50;;;;;;;10.71;56.02;98527.47;4483630;32;20093;-72
2022/05/29 00:55:31;;;;;;;3.62;0.70;;;;;;;10.73;56.18;98528.16;4484989;31;20084;-72
2022/05/29 00:58:01;;;;;;;0.98;0.52;;;;;;;10.77;54.95;98531.31;4483780;32;20123;-72
2022/05/29 01:00:29;;;;;;;1.65;0.80;;;;;;;10.74;55.93;98515.91;4483841;32;20510;-72
2022/05/29 01:02:59;;;;;;;2.00;0.60;;;;;;;10.72;55.51;98516.03;4484573;31;20088;-72
2022/05/29 01:05:28;;;;;;;1.23;0.60;;;;;;;10.70;55.54;98523.19;4484697;31;20108;-72
2022/05/29 01:08:04;;;;;;;0.65;0.45;;;;;;;10.67;55.60;98515.63;4484930;31;20096;-72
2022/05/29 01:10:50;;;;;;;2.90;0.82;;;;;;;10.62;55.50;98508.22;4484853;31;20509;-72
2022/05/29 01:13:26;;;;;;;2.30;0.62;;;;;;;10.72;54.94;98507.34;4484786;31;20140;-72
2022/05/29 01:16:39;;;;;;;1.35;0.80;;;;;;;10.79;54.15;98508.41;4484820;31;20439;-72
2022/05/29 01:19:22;;;;;;;0.90;0.50;;;;;;;10.73;54.08;98504.56;4407748;32;20137;-72
2022/05/29 01:21:49;;;;;;;1.62;0.62;;;;;;;10.73;53.08;98501.94;4407573;32;20141;-72
2022/05/29 01:24:50;;;;;;;1.23;0.50;;;;;;;10.70;53.46;98506.66;4420068;32;20093;-72
2022/05/29 01:27:36;;;;;;;1.48;0.60;;;;;;;10.73;52.62;98506.38;4420159;32;20121;-72
2022/05/29 01:30:10;;;;;;;2.37;0.90;;;;;;;10.78;52.30;98512.84;4420166;32;20835;-72
2022/05/29 01:33:00;;;;;;;1.70;0.80;;;;;;;10.78;52.23;98517.25;4404711;32;20140;-72
2022/05/29 01:35:32;;;;;;;0.95;0.40;;;;;;;10.76;52.19;98508.72;4404537;32;20400;-73
2022/05/29 01:38:07;;;;;;;0.40;0.40;;;;;;;10.81;51.73;98516.97;4404762;32;20205;-72
2022/05/29 01:40:34;;;;;;;2.28;0.77;;;;;;;10.82;51.85;98519.47;4392329;32;20595;-72
2022/05/29 01:43:11;;;;;;;3.33;0.52;;;;;;;10.86;52.29;98519.16;4404727;32;20141;-72
2022/05/29 01:45:55;;;;;;;1.65;0.60;;;;;;;10.80;52.23;98521.38;4404659;32;20103;-72
2022/05/29 01:48:35;;;;;;;1.12;0.57;;;;;;;10.75;52.61;98517.53;4393233;32;20101;-72
2022/05/29 01:51:14;;;;;;;1.33;0.60;;;;;;;10.70;52.98;98525.00;4404444;32;20129;-72
2022/05/29 01:53:47;;;;;;;1.70;0.60;;;;;;;10.71;52.48;98524.88;4392256;32;20570;-72
2022/05/29 01:56:36;;;;;;;2.70;0.60;;;;;;;10.76;52.91;98519.19;4440736;32;20156;-72
2022/05/29 01:59:11;;;;;;;3.60;0.50;;;;;;;10.74;53.38;98516.72;4468596;32;20085;-72
2022/05/29 02:01:42;;;;;;;2.65;1.17;;;;;;;10.70;53.91;98512.72;4468710;32;20145;-72
2022/05/29 02:04:13;;;;;;;2.08;0.70;;;;;;;10.67;53.71;98510.38;4467032;32;20127;-72
2022/05/29 02:10:00;;;;;;;1.50;0.82;;;;;;;10.67;53.78;98517.44;4467643;32;20107;-72
2022/05/29 02:12:29;;;;;;;2.28;0.55;;;;;;;10.59;54.43;98513.72;4419527;32;20539;-72
2022/05/29 02:15:11;;;;;;;0.65;0.50;;;;;;;10.62;54.28;98500.34;4421201;32;20098;-72
2022/05/29 02:17:42;;;;;;;0.82;0.60;;;;;;;10.58;53.85;98500.78;4421374;32;20566;-72
2022/05/29 02:20:22;;;;;;;3.92;0.70;;;;;;;10.57;53.56;98499.97;4421874;32;20693;-72
2022/05/29 02:22:50;;;;;;;0.80;0.45;;;;;;;10.56;53.08;98498.31;4421520;32;20093;-72
2022/05/29 02:25:19;;;;;;;1.30;0.85;;;;;;;10.62;52.86;98491.66;4421724;32;20145;-72
2022/05/29 02:28:18;;;;;;;0.50;0.50;;;;;;;10.61;52.80;98488.25;4408731;32;20222;-72
2022/05/29 02:31:16;;;;;;;0.70;0.40;;;;;;;10.61;52.84;98490.84;4423560;32;20133;-72
2022/05/29 02:34:01;;;;;;;2.05;0.80;;;;;;;10.68;52.25;98488.47;4390909;32;20110;-72
2022/05/29 02:36:55;;;;;;;0.70;0.50;;;;;;;10.72;51.85;98487.22;4391088;32;20186;-72
2022/05/29 02:39:43;;;;;;;0.93;0.60;;;;;;;10.79;50.94;98482.22;4403525;32;20182;-72
2022/05/29 02:42:38;;;;;;;1.02;0.62;;;;;;;10.81;51.16;98475.06;4391096;32;20117;-72
2022/05/29 02:45:20;;;;;;;0.62;0.40;;;;;;;10.81;51.59;98478.50;4391044;32;20152;-72
2022/05/29 02:47:53;;;;;;;1.62;0.62;;;;;;;10.79;51.51;98483.03;4393240;32;20129;-72
2022/05/29 02:50:33;;;;;;;1.33;0.60;;;;;;;10.75;51.68;98471.22;4452507;32;20111;-72
2022/05/29 02:53:07;;;;;;;2.40;0.50;;;;;;;10.78;51.09;98478.78;4452344;32;20148;-72
2022/05/29 02:55:35;;;;;;;3.05;0.77;;;;;;;10.80;51.05;98468.97;4452172;32;20119;-72
2022/05/29 02:58:07;;;;;;;1.50;0.50;;;;;;;10.79;50.64;98467.31;4452242;32;20188;-72
2022/05/29 03:00:48;;;;;;;1.15;0.70;;;;;;;10.79;50.13;98472.53;4452435;32;20497;-72
2022/05/29 03:03:21;;;;;;;3.90;0.60;;;;;;;10.79;50.62;98471.72;4439165;32;20093;-72
2022/05/29 03:06:09;;;;;;;0.93;0.57;;;;;;;10.76;51.14;98477.25;4439303;32;20128;-72
2022/05/29 03:08:41;;;;;;;1.42;0.62;;;;;;;10.71;51.23;98469.03;4439309;32;20166;-72
2022/05/29 03:11:41;;;;;;;2.90;0.85;;;;;;;10.70;50.92;98460.31;4464560;32;20084;-72
2022/05/29 03:14:18;;;;;;;2.12;0.60;;;;;;;10.74;50.74;98453.84;4485964;31;20084;-72
2022/05/29 03:17:00;;;;;;;2.50;0.52;;;;;;;10.77;50.24;98450.91;4485726;31;20790;-72
2022/05/29 03:19:55;;;;;;;2.75;0.70;;;;;;;10.80;50.15;98444.56;4485944;31;20110;-72
2022/05/29 03:22:54;;;;;;;1.98;0.70;;;;;;;10.83;50.30;98447.72;4485729;31;20100;-72
2022/05/29 03:25:22;;;;;;;1.00;0.70;;;;;;;10.88;50.25;98451.69;4484480;31;20140;-72
2022/05/29 03:27:50;;;;;;;0.98;0.62;;;;;;;10.90;49.81;98445.34;4485545;31;20512;-72
2022/05/29 03:30:27;;;;;;;1.87;0.60;;;;;;;10.95;49.48;98444.91;4484311;32;20139;-72
2022/05/29 03:32:57;;;;;;;3.55;1.05;;;;;;;11.03;49.04;98441.53;4484375;32;20096;-72
2022/05/29 03:35:31;;;;;;;3.35;0.60;;;;;;;11.09;48.79;98435.69;4485393;31;20088;-72
2022/05/29 03:38:00;;;;;;;0.88;0.50;;;;;;;11.17;48.51;98434.00;4485532;31;20156;-72
2022/05/29 03:40:28;;;;;;;0.70;0.65;;;;;;;11.16;48.80;98434.94;4485590;31;20096;-72
2022/05/29 03:42:56;;;;;;;1.42;0.60;;;;;;;11.21;49.00;98436.31;4484304;32;20096;-72
2022/05/29 03:45:23;;;;;;;1.83;0.37;;;;;;;11.27;49.18;98443.59;4485489;32;20171;-72
2022/05/29 03:47:50;;;;;;;3.30;0.73;;;;;;;11.26;49.13;98444.53;4485333;31;20123;-72
2022/05/29 03:50:20;;;;;;;1.10;0.85;;;;;;;11.26;49.02;98440.13;4485493;31;20096;-72
2022/05/29 03:52:47;;;;;;;2.25;0.60;;;;;;;11.29;48.97;98449.50;4485486;31;20175;-72
2022/05/29 03:55:16;;;;;;;1.02;0.60;;;;;;;11.34;49.37;98439.37;4485326;31;20118;-72
2022/05/29 03:57:43;;;;;;;2.65;0.70;;;;;;;11.32;49.62;98444.75;4485385;31;20081;-72
2022/05/29 04:00:11;;;;;;;1.73;0.80;;;;;;;11.41;49.31;98445.66;4485706;31;20096;-72
2022/05/29 04:02:42;;;;;;;0.55;0.40;;;;;;;11.46;49.69;98450.44;4484086;32;20501;-72
2022/05/29 04:05:11;;;;;;;1.42;0.90;;;;;;;11.47;49.53;98455.56;4484450;32;20108;-72
2022/05/29 04:13:10;;;;;;;2.30;0.80;;;;;;;11.58;49.31;98441.38;4485696;31;20472;-72
2022/05/29 04:15:45;;;;;;;1.17;1.08;;;;;;;11.61;49.52;98441.09;4484207;32;20144;-72
2022/05/29 04:18:17;;;;;;;0.88;0.70;;;;;;;11.62;49.43;98442.72;4485524;31;20080;-72
2022/05/29 04:20:45;;;;;;;1.62;0.52;;;;;;;11.65;49.22;98439.81;4485422;31;20080;-72
2022/05/29 04:23:12;;;;;;;1.95;0.70;;;;;;;11.75;49.45;98442.34;4485453;31;20110;-72
2022/05/29 04:25:43;;;;;;;1.50;0.50;;;;;;;11.81;49.47;98435.62;4485269;31;20130;-72
2022/05/29 04:28:11;;;;;;;0.60;0.60;;;;;;;11.84;49.04;98441.44;4485308;31;20114;-72
2022/05/29 04:30:38;;;;;;;4.50;0.80;;;;;;;11.88;49.04;98440.16;4485256;31;20088;-72
2022/05/29 04:33:06;;;;;;;1.30;0.68;;;;;;;11.84;49.04;98441.44;4485071;31;20507;-72
2022/05/29 04:35:44;;;;;;;2.62;0.70;;;;;;;11.85;49.08;98443.09;4485271;32;20506;-72
2022/05/29 04:38:12;;;;;;;4.12;0.90;;;;;;;11.87;48.76;98432.44;4484815;31;20096;-73
2022/05/29 04:40:41;;;;;;;1.45;0.60;;;;;;;11.96;48.80;98438.56;4485360;31;20123;-72
2022/05/29 04:43:09;;;;;;;2.05;0.60;;;;;;;11.99;48.62;98443.50;4485225;31;20118;-72
2022/05/29 04:45:39;;;;;;;5.00;1.20;;;;;;;12.06;48.58;98440.09;4485131;31;20450;-72
2022/05/29 04:48:06;;;;;;;3.45;0.95;;;;;;;12.11;48.05;98441.47;4484976;31;20139;-73
2022/05/29 04:50:35;;;;;;;1.40;0.77;;;;;;;12.20;48.65;98440.53;4485143;32;20180;-72
2022/05/29 04:53:03;;;;;;;1.20;0.60;;;;;;;12.19;48.79;98437.09;4485177;31;20118;-72
2022/05/29 04:55:31;;;;;;;1.42;0.70;;;;;;;12.22;49.09;98442.03;4484752;31;20104;-72
2022/05/29 04:57:58;;;;;;;1.37;0.80;;;;;;;12.34;48.93;98436.50;4485022;31;20340;-72
2022/05/29 05:00:26;;;;;;;1.42;0.90;;;;;;;12.40;48.74;98430.63;4484881;32;20453;-72
2022/05/29 05:02:53;;;;;;;1.05;0.50;;;;;;;12.44;48.68;98429.31;4484803;32;20465;-72
2022/05/29 05:05:20;;;;;;;1.05;0.65;;;;;;;12.58;48.22;98426.09;4484967;32;20088;-72
2022/05/29 05:07:47;;;;;;;5.32;1.00;;;;;;;12.85;48.78;98434.72;4484920;31;20473;-72
2022/05/29 05:10:17;;;;;;;1.67;0.90;;;;;;;12.97;47.82;98443.12;4485230;32;20243;-72
2022/05/29 05:12:44;;;;;;;3.08;0.90;;;;;;;12.99;48.37;98437.72;4484860;31;20092;-72
2022/05/29 05:15:15;;;;;;;1.75;0.80;;;;;;;12.98;49.48;98430.84;4484835;31;20389;-73
2022/05/29 05:17:42;;;;;;;1.70;0.80;;;;;;;13.10;50.24;98440.06;4483478;32;20100;-72
2022/05/29 05:20:10;;;;;;;3.95;1.30;;;;;;;13.06;51.61;98438.72;4484676;31;20101;-72
2022/05/29 05:22:37;;;;;;;8.68;1.60;;;;;;;12.92;55.10;98440.19;4484848;31;20466;-72
2022/05/29 05:25:05;;;;;;;3.67;1.30;;;;;;;13.00;54.54;98436.75;4484888;31;20127;-72
2022/05/29 05:27:32;;;;;;;10.30;1.40;;;;;;;13.01;54.97;98435.78;4484655;31;20089;-72
2022/05/29 05:30:00;;;;;;;3.42;1.30;;;;;;;13.11;55.24;98439.06;4484667;32;20100;-72
2022/05/29 05:32:27;;;;;;;2.50;1.45;;;;;;;13.07;56.38;98440.38;4484444;31;20113;-72
2022/05/29 05:34:54;;;;;;;2.25;1.10;;;;;;;13.27;56.73;98439.09;4484550;31;20134;-72
2022/05/29 05:37:21;;;;;;;4.03;1.20;;;;;;;13.17;56.36;98441.06;4484838;31;20092;-72
2022/05/29 05:39:51;;;;;;;3.08;1.62;;;;;;;13.17;57.20;98438.44;4484364;32;20111;-72
2022/05/29 05:42:18;;;;;;;4.45;1.48;;;;;;;12.96;57.46;98434.44;4484489;31;20138;-72
2022/05/29 05:44:46;;;;;;;4.90;1.30;;;;;;;12.93;57.91;98441.84;4484426;31;20100;-72
2022/05/29 05:47:14;;;;;;;2.22;1.27;;;;;;;13.00;57.82;98442.81;4484538;31;20093;-72
2022/05/29 05:49:41;;;;;;;5.05;1.55;;;;;;;12.93;57.71;98437.38;4485481;32;20100;-72
2022/05/29 05:52:08;;;;;;;3.17;1.12;;;;;;;12.83;57.44;98441.13;4486400;31;20503;-72
2022/05/29 05:54:35;;;;;;;3.08;1.30;;;;;;;12.78;57.42;98433.72;4486192;32;20597;-72
2022/05/29 05:57:06;;;;;;;3.83;1.35;;;;;;;12.98;57.00;98436.09;4486208;31;20096;-72
2022/05/29 05:59:38;;;;;;;5.95;1.23;;;;;;;13.09;56.83;98436.59;4486304;31;20092;-72
2022/05/29 06:02:09;;;;;;;2.97;1.12;;;;;;;13.31;56.04;98434.34;4486285;31;20104;-72
2022/05/29 06:04:38;;;;;;;1.67;1.00;;;;;;;13.37;54.39;98435.50;4484936;32;20095;-72
2022/05/29 06:07:06;;;;;;;2.30;1.20;;;;;;;13.34;53.66;98426.16;4486221;31;20169;-72
2022/05/29 06:09:34;;;;;;;2.33;1.25;;;;;;;13.48;52.72;98428.12;4486456;31;20097;-72
2022/05/29 06:12:03;;;;;;;3.15;1.08;;;;;;;13.49;52.19;98442.94;4486499;31;20088;-72
2022/05/29 06:14:30;;;;;;;2.15;1.15;;;;;;;13.64;50.81;98434.38;4486235;31;20092;-72
2022/05/29 06:16:58;;;;;;;2.12;0.90;;;;;;;13.76;50.27;98429.59;4486176;31;20104;-72
2022/05/29 06:19:26;;;;;;;7.15;0.90;;;;;;;14.18;50.29;98436.44;4486284;32;20993;-72
2022/05/29 06:21:53;;;;;;;3.20;0.73;;;;;;;14.49;49.70;98433.88;4486106;31;20088;-72
2022/05/29 06:24:20;;;;;;;1.40;0.90;;;;;;;14.51;46.92;98439.00;4486181;31;20088;-72
2022/05/29 06:26:47;;;;;;;3.00;0.98;;;;;;;14.52;46.94;98435.38;4485078;32;20492;-72
2022/05/29 06:29:14;;;;;;;2.37;0.90;;;;;;;14.51;48.01;98429.25;4486100;31;20131;-72
2022/05/29 06:31:41;;;;;;;0.75;0.60;;;;;;;14.53;47.15;98429.09;4485825;31;20123;-72
2022/05/29 06:34:09;;;;;;;3.05;0.75;;;;;;;14.76;44.71;98444.19;4485891;32;20138;-72
2022/05/29 06:36:36;;;;;;;1.73;0.70;;;;;;;14.76;45.91;98438.91;4485905;32;20762;-72
2022/05/29 06:39:04;;;;;;;0.88;0.80;;;;;;;14.77;45.35;98440.56;4486228;31;20097;-72
2022/05/29 06:41:33;;;;;;;1.95;1.17;;;;;;;14.75;44.82;98438.09;4486046;32;20497;-72
2022/05/29 06:44:01;;;;;;;3.95;0.90;;;;;;;15.01;44.86;98435.16;4486099;31;20083;-72
2022/05/29 06:46:28;;;;;;;8.18;1.00;;;;;;;15.32;44.72;98431.69;4485996;32;20510;-72
2022/05/29 06:48:55;;;;;;;1.55;0.80;;;;;;;15.06;43.80;98422.28;4485912;32;20502;-72
2022/05/29 06:51:23;;;;;;;3.47;0.85;;;;;;;15.23;45.12;98423.00;4486104;32;20127;-72
2022/05/29 06:53:51;;;;;;;2.62;1.05;;;;;;;15.04;45.40;98434.81;4486042;31;20118;-72
2022/05/29 06:56:19;;;;;;;5.35;0.80;;;;;;;15.23;46.18;98428.25;4485649;31;20113;-72
2022/05/29 06:58:46;;;;;;;1.20;0.73;;;;;;;15.70;43.55;98430.87;4485902;31;20097;-72
2022/05/29 07:07:00;;;;;;;2.28;1.00;;;;;;;15.65;41.64;98431.41;4485633;32;20183;-73
2022/05/29 07:09:37;;;;;;;1.35;0.70;;;;;;;15.77;42.72;98427.34;4485798;32;20518;-72
2022/05/29 07:12:09;;;;;;;3.80;0.93;;;;;;;15.92;42.34;98418.66;4485933;31;20076;-72
2022/05/29 07:14:39;;;;;;;1.35;0.45;;;;;;;16.21;42.07;98417.03;4485892;31;20118;-73
2022/05/29 07:17:06;;;;;;;3.47;0.70;;;;;;;16.17;40.07;98421.03;4485909;31;20108;-72
2022/05/29 07:19:34;;;;;;;5.30;0.88;;;;;;;16.17;40.67;98421.88;4485792;31;20191;-72
2022/05/29 07:22:02;;;;;;;2.05;0.80;;;;;;;16.29;41.73;98415.13;4485530;31;20100;-72
2022/05/29 07:24:33;;;;;;;2.97;0.95;;;;;;;16.67;41.66;98427.41;4485682;31;20281;-72
2022/05/29 07:27:00;;;;;;;2.75;1.23;;;;;;;16.49;39.16;98428.59;4485865;31;20093;-72
2022/05/29 07:29:27;;;;;;;4.12;0.90;;;;;;;16.54;38.79;98416.66;4485824;32;20599;-72
2022/05/29 07:31:54;;;;;;;1.08;0.60;;;;;;;16.60;40.43;98411.44;4485578;31;20430;-72
2022/05/29 07:34:23;;;;;;;3.12;0.62;;;;;;;16.25;40.26;98407.75;4485292;31;20118;-72
2022/05/29 07:36:51;;;;;;;0.98;0.70;;;;;;;16.26;39.46;98419.94;4485660;31;20097;-72
2022/05/29 07:39:20;;;;;;;1.20;0.60;;;;;;;16.18;39.55;98412.94;4485511;31;20127;-72
2022/05/29 07:44:39;;;;;;;3.35;0.70;;;;;;;16.08;39.19;98404.47;4485700;32;20077;-72
2022/05/29 07:47:06;;;;;;;6.00;0.80;;;;;;;15.93;40.90;98404.44;4485473;31;20481;-72
2022/05/29 07:49:33;;;;;;;1.35;0.45;;;;;;;16.29;39.75;98404.56;4485474;31;20169;-72
2022/05/29 07:52:01;;;;;;;0.90;0.60;;;;;;;16.16;39.77;98407.00;4485478;31;20119;-72
2022/05/29 07:54:31;;;;;;;3.65;0.85;;;;;;;16.12;40.23;98403.09;4485528;31;20111;-72
2022/05/29 07:56:58;;;;;;;2.75;0.80;;;;;;;16.26;40.80;98404.09;4485486;31;20104;-72
2022/05/29 07:59:26;;;;;;;3.45;0.65;;;;;;;16.46;41.67;98405.19;4485768;31;20101;-72
2022/05/29 08:01:53;;;;;;;1.40;0.60;;;;;;;16.57;40.59;98411.00;4485725;31;20419;-72
2022/05/29 08:04:21;;;;;;;4.47;0.77;;;;;;;16.72;39.88;98395.13;4485219;31;20076;-72
2022/05/29 08:06:49;;;;;;;1.65;0.80;;;;;;;16.89;40.99;98398.38;4485394;31;20064;-72
2022/05/29 08:09:16;;;;;;;1.05;0.50;;;;;;;16.74;40.02;98398.38;4485473;31;20093;-72
2022/05/29 08:11:44;;;;;;;1.83;0.70;;;;;;;16.90;40.27;98394.75;4484555;31;20156;-73
2022/05/29 08:14:11;;;;;;;1.23;0.75;;;;;;;17.16;38.69;98397.66;4485394;31;20084;-72
2022/05/29 08:16:39;;;;;;;1.10;0.70;;;;;;;17.16;40.47;98404.78;4485350;32;20104;-73
2022/05/29 08:19:07;;;;;;;4.00;0.70;;;;;;;17.22;40.22;98382.03;4485327;31;20108;-72
2022/05/29 08:21:34;;;;;;;1.48;0.60;;;;;;;17.28;40.48;98382.09;4485230;31;20115;-72
2022/05/29 08:32:44;;;;;;;2.87;0.75;;;;;;;17.32;39.47;98378.06;4469710;32;20494;-72
2022/05/29 08:35:12;;;;;;;8.18;0.95;;;;;;;17.93;38.16;98381.19;4469399;32;20114;-73
2022/05/29 08:37:40;;;;;;;1.52;0.80;;;;;;;18.12;37.36;98383.13;4469447;32;20164;-73
2022/05/29 08:40:08;;;;;;;4.90;0.70;;;;;;;18.04;36.77;98386.75;4469572;32;20670;-72
2022/05/29 08:42:36;;;;;;;1.02;0.60;;;;;;;17.98;38.54;98381.44;4469580;32;20367;-72
2022/05/29 08:45:04;;;;;;;3.60;0.60;;;;;;;17.62;39.41;98377.06;4468532;32;20110;-72
2022/05/29 08:47:32;;;;;;;2.58;0.62;;;;;;;17.69;37.96;98378.75;4469381;32;20120;-72
2022/05/29 08:50:03;;;;;;;6.80;0.90;;;;;;;17.26;39.68;98376.16;4469528;32;20089;-73
2022/05/29 08:52:56;;;;;;;1.30;0.50;;;;;;;17.46;40.97;98373.69;4469353;32;20123;-73
2022/05/29 08:55:33;;;;;;;3.62;0.70;;;;;;;17.14;40.00;98367.91;4468233;32;20076;-73
2022/05/29 08:58:34;;;;;;;1.73;0.80;;;;;;;17.86;40.27;98373.16;4468162;32;20097;-72
2022/05/29 09:01:35;;;;;;;2.22;1.10;;;;;;;17.42;39.71;98371.63;4468041;32;20127;-72
2022/05/29 09:04:06;;;;;;;1.00;0.57;;;;;;;17.36;40.09;98370.53;4469326;32;20096;-73
2022/05/29 09:06:43;;;;;;;2.92;0.60;;;;;;;17.75;41.08;98374.50;4467990;32;20128;-72
2022/05/29 09:09:43;;;;;;;4.78;1.10;;;;;;;17.83;37.34;98370.91;4469221;32;20525;-72
2022/05/29 09:12:16;;;;;;;1.02;0.57;;;;;;;17.96;37.63;98367.56;4469189;32;20097;-73
2022/05/29 09:14:53;;;;;;;1.60;0.62;;;;;;;18.16;36.52;98368.47;4467944;32;20143;-72
2022/05/29 09:17:26;;;;;;;1.42;0.90;;;;;;;17.97;36.47;98371.81;4467787;32;20128;-72
2022/05/29 09:20:06;;;;;;;0.90;0.60;;;;;;;17.69;36.33;98367.34;4467955;32;20096;-72
2022/05/29 09:22:44;;;;;;;1.10;0.75;;;;;;;17.92;38.23;98367.09;4469170;32;20092;-72
2022/05/29 09:25:28;;;;;;;1.17;0.70;;;;;;;17.93;36.91;98363.47;4469097;32;20076;-73
2022/05/29 09:27:59;;;;;;;0.77;0.60;;;;;;;17.47;37.01;98359.44;4467845;32;20111;-72
2022/05/29 09:30:26;;;;;;;2.47;0.80;;;;;;;17.85;38.10;98360.91;4470198;32;20493;-72
2022/05/29 09:33:00;;;;;;;6.65;1.08;;;;;;;17.66;36.70;98360.59;4484478;31;20096;-72
2022/05/29 09:35:56;;;;;;;1.45;0.70;;;;;;;17.94;36.71;98366.91;4483739;32;20484;-72
2022/05/29 09:38:34;;;;;;;1.85;0.88;;;;;;;18.39;36.25;98360.22;4484743;31;20131;-73
2022/05/29 09:41:05;;;;;;;1.77;0.80;;;;;;;18.45;35.65;98358.59;4483420;32;20122;-73
2022/05/29 09:43:33;;;;;;;2.30;0.90;;;;;;;18.27;35.22;98359.16;4483349;32;20172;-72
2022/05/29 09:46:19;;;;;;;2.17;0.65;;;;;;;18.20;36.01;98367.06;4483232;32;20144;-73
2022/05/29 09:51:53;;;;;;;1.15;0.70;;;;;;;18.48;34.21;98350.25;4484533;31;20520;-73
2022/05/29 09:54:29;;;;;;;2.25;0.60;;;;;;;18.67;36.52;98339.91;4483273;32;20092;-72
2022/05/29 09:57:08;;;;;;;1.58;0.40;;;;;;;18.68;33.57;98344.19;4484214;31;20417;-72
2022/05/29 09:59:39;;;;;;;2.95;0.57;;;;;;;18.65;34.68;98341.94;4484266;31;20640;-73
2022/05/29 10:02:06;;;;;;;5.55;0.70;;;;;;;18.97;35.14;98343.91;4483049;32;20104;-73
2022/05/29 10:04:39;;;;;;;3.65;0.82;;;;;;;19.60;35.07;98340.03;4482716;32;20469;-73
2022/05/29 10:07:27;;;;;;;0.98;0.52;;;;;;;19.28;35.21;98344.34;4484197;31;20092;-72
2022/05/29 10:10:04;;;;;;;3.42;0.70;;;;;;;19.64;34.76;98335.94;4482883;32;20398;-73
2022/05/29 10:12:45;;;;;;;3.65;0.70;;;;;;;19.50;34.71;98326.38;4484160;31;20093;-73
2022/05/29 10:15:25;;;;;;;1.37;0.68;;;;;;;19.68;33.05;98328.38;4482909;32;20168;-72
2022/05/29 10:17:53;;;;;;;2.53;0.60;;;;;;;18.93;34.42;98337.34;4484388;31;20084;-72
2022/05/29 10:20:32;;;;;;;1.60;0.70;;;;;;;18.68;35.17;98331.75;4483937;31;20130;-72
2022/05/29 10:23:02;;;;;;;5.60;0.68;;;;;;;18.63;34.37;98331.53;4484019;31;20463;-73
2022/05/29 10:26:21;;;;;;;1.37;0.50;;;;;;;18.53;35.78;98329.28;4483833;31;20092;-72
2022/05/29 10:28:49;;;;;;;1.08;0.57;;;;;;;18.50;35.11;98324.37;4434699;32;20105;-72
2022/05/29 10:31:25;;;;;;;4.35;0.95;;;;;;;18.27;35.35;98328.16;4428222;32;20163;-72
2022/05/29 10:34:07;;;;;;;2.10;0.80;;;;;;;18.41;35.49;98328.19;4406461;32;20222;-73
2022/05/29 10:36:35;;;;;;;1.87;0.62;;;;;;;18.84;36.01;98319.94;4409023;32;20129;-73
2022/05/29 10:39:12;;;;;;;1.05;0.70;;;;;;;18.55;35.12;98316.63;4421627;32;20160;-72
2022/05/29 10:41:41;;;;;;;1.95;0.68;;;;;;;18.43;35.55;98305.75;4421569;32;20098;-72
2022/05/29 10:44:10;;;;;;;1.45;0.50;;;;;;;18.72;35.72;98308.28;4421418;32;20101;-72
2022/05/29 10:46:52;;;;;;;2.67;0.82;;;;;;;18.76;35.65;98320.97;4408785;32;20175;-72
2022/05/29 10:49:30;;;;;;;2.58;0.75;;;;;;;18.26;34.93;98315.91;4408840;32;20094;-72
2022/05/29 10:52:07;;;;;;;1.02;0.60;;;;;;;18.41;35.77;98318.41;4408812;32;20097;-73
2022/05/29 10:54:47;;;;;;;3.35;0.80;;;;;;;18.16;35.81;98302.19;4421379;32;20148;-72
2022/05/29 10:57:20;;;;;;;3.70;0.90;;;;;;;18.19;36.94;98308.94;4421351;32;20307;-73
2022/05/29 11:00:00;;;;;;;3.60;0.68;;;;;;;18.32;37.30;98314.31;4421396;32;20144;-73
2022/05/29 11:05:53;;;;;;;7.35;0.90;;;;;;;18.77;36.20;98313.81;4485803;32;20153;-72
2022/05/29 11:08:36;;;;;;;3.65;0.70;;;;;;;18.44;36.51;98314.56;4485664;31;20126;-73
2022/05/29 11:11:15;;;;;;;4.57;0.85;;;;;;;18.42;37.79;98312.06;4485865;32;20072;-72
2022/05/29 11:13:55;;;;;;;3.22;0.77;;;;;;;18.39;36.95;98314.31;4485810;31;20073;-72
2022/05/29 11:16:37;;;;;;;4.47;1.05;;;;;;;18.75;35.40;98310.56;4485691;31;20115;-72
2022/05/29 11:19:22;;;;;;;1.48;0.62;;;;;;;18.16;36.33;98310.16;4485822;31;20096;-73
2022/05/29 11:22:01;;;;;;;1.70;0.60;;;;;;;18.38;36.71;98310.03;4486023;31;20131;-72
2022/05/29 11:24:53;;;;;;;1.17;0.80;;;;;;;18.41;36.63;98305.16;4485729;31;20504;-72
2022/05/29 11:27:51;;;;;;;1.87;0.80;;;;;;;18.85;36.79;98294.22;4485629;31;20172;-72
2022/05/29 11:30:18;;;;;;;1.37;0.70;;;;;;;18.70;36.96;98286.44;4485646;31;20462;-72
2022/05/29 11:33:16;;;;;;;3.15;0.85;;;;;;;18.44;37.31;98290.69;4485328;32;20093;-73
2022/05/29 11:36:05;;;;;;;2.58;1.00;;;;;;;18.76;37.84;98288.31;4485552;31;20076;-73
2022/05/29 11:38:39;;;;;;;1.30;0.73;;;;;;;18.87;38.30;98293.03;4484228;32;20104;-73
2022/05/29 11:41:17;;;;;;;2.00;0.70;;;;;;;19.00;37.10;98286.94;4485748;31;20107;-72
2022/05/29 11:44:06;;;;;;;1.85;0.70;;;;;;;19.25;37.32;98281.81;4484414;32;20089;-72
2022/05/29 11:52:23;;;;;;;2.72;0.90;;;;;;;18.94;35.84;98269.97;4485640;31;20111;-72
2022/05/29 11:55:09;;;;;;;3.17;0.88;;;;;;;18.74;35.84;98275.25;4485634;31;20176;-72
2022/05/29 11:57:58;;;;;;;2.25;0.98;;;;;;;19.10;36.21;98283.88;4473957;31;368943;-72
2022/05/29 12:00:35;;;;;;;1.40;0.73;;;;;;;19.36;36.21;98277.72;4484289;32;20092;-73
2022/05/29 12:03:21;;;;;;;1.48;0.70;;;;;;;19.40;35.08;98270.16;4485266;31;20092;-73
2022/05/29 12:06:25;;;;;;;5.65;1.20;;;;;;;19.29;35.74;98275.06;4485456;31;20108;-72
2022/05/29 12:09:08;;;;;;;4.55;1.05;;;;;;;18.82;36.03;98268.09;4485140;31;20115;-73
2022/05/29 12:11:44;;;;;;;3.58;1.10;;;;;;;18.87;36.26;98269.16;4485224;31;20084;-73
2022/05/29 12:14:39;;;;;;;6.37;1.83;;;;;;;18.68;36.89;98261.94;4485550;32;20089;-73
2022/05/29 12:17:33;;;;;;;0.95;0.70;;;;;;;18.45;36.35;98265.78;4485325;31;20071;-73
2022/05/29 12:20:22;;;;;;;3.72;0.80;;;;;;;18.57;38.89;98258.88;4484072;32;20151;-73
2022/05/29 12:22:55;;;;;;;1.10;0.80;;;;;;;18.71;37.42;98258.91;4485372;31;20088;-73
2022/05/29 12:25:37;;;;;;;2.80;0.82;;;;;;;18.81;36.20;98264.63;4485719;31;20096;-72
2022/05/29 12:28:08;;;;;;;12.10;1.45;;;;;;;18.90;36.71;98266.09;4484156;32;20107;-73
2022/05/29 12:30:45;;;;;;;14.00;1.08;;;;;;;18.65;34.91;98259.69;4485370;31;20110;-73
2022/05/29 12:33:21;;;;;;;3.42;0.90;;;;;;;18.38;34.51;98263.13;4484043;32;20088;-73
2022/05/29 12:36:11;;;;;;;3.20;0.93;;;;;;;18.63;34.85;98260.72;4484157;32;20170;-73
2022/05/29 12:39:04;;;;;;;3.30;1.35;;;;;;;18.57;36.55;98268.66;4485083;31;20149;-73
2022/05/29 12:41:38;;;;;;;2.87;0.80;;;;;;;18.62;36.37;98266.22;4485536;31;20415;-73
2022/05/29 12:44:26;;;;;;;1.13;0.70;;;;;;;18.70;36.10;98262.56;4485337;31;20115;-73